<?xml version="1.0" encoding="UTF-8" standalone="no" ?>
<gpx xmlns="http://www.topografix.com/GPX/1/1" xmlns:xsi="http://www.w3.org/2001/XMLSchema-instance" xsi:schemaLocation="http://www.topografix.com/GPX/1/1 http://www.topografix.com/GPX/1/1/gpx.xsd" version="1.1" creator="VisuGPX - https://www.visugpx.com">
  <metadata>
    <name>le châtenet -Marèle</name>
    <desc><![CDATA[[i][/i]] marche sur route agréable, temps maussade]]></desc>
  </metadata>
  <trk>
    <name><![CDATA[2018-09-22 10:55:52]]></name>
    <trkseg>
      <trkpt lat="45.3104" lon="1.10349">
        <ele>291.9</ele>
        <time>2018-09-22T08:02:44Z</time>
      </trkpt>
      <trkpt lat="45.31042" lon="1.10341">
        <ele>285.17</ele>
        <time>2018-09-22T08:03:07Z</time>
      </trkpt>
      <trkpt lat="45.31043" lon="1.10339">
        <ele>281.8</ele>
        <time>2018-09-22T08:03:32Z</time>
      </trkpt>
      <trkpt lat="45.31033" lon="1.10341">
        <ele>278.92</ele>
        <time>2018-09-22T08:03:47Z</time>
      </trkpt>
      <trkpt lat="45.31026" lon="1.10334">
        <ele>276.04</ele>
        <time>2018-09-22T08:04:03Z</time>
      </trkpt>
      <trkpt lat="45.31026" lon="1.10331">
        <ele>275.56</ele>
        <time>2018-09-22T08:04:27Z</time>
      </trkpt>
      <trkpt lat="45.31027" lon="1.10329">
        <ele>275.07</ele>
        <time>2018-09-22T08:04:42Z</time>
      </trkpt>
      <trkpt lat="45.31033" lon="1.10335">
        <ele>274.11</ele>
        <time>2018-09-22T08:05:04Z</time>
      </trkpt>
      <trkpt lat="45.31026" lon="1.10338">
        <ele>271.71</ele>
        <time>2018-09-22T08:05:16Z</time>
      </trkpt>
      <trkpt lat="45.31015" lon="1.10338">
        <ele>270.75</ele>
        <time>2018-09-22T08:05:33Z</time>
      </trkpt>
      <trkpt lat="45.31005" lon="1.10342">
        <ele>269.79</ele>
        <time>2018-09-22T08:05:48Z</time>
      </trkpt>
      <trkpt lat="45.31001" lon="1.10353">
        <ele>268.35</ele>
        <time>2018-09-22T08:06:03Z</time>
      </trkpt>
      <trkpt lat="45.31002" lon="1.10363">
        <ele>266.42</ele>
        <time>2018-09-22T08:06:20Z</time>
      </trkpt>
      <trkpt lat="45.31004" lon="1.10367">
        <ele>265.94</ele>
        <time>2018-09-22T08:06:41Z</time>
      </trkpt>
      <trkpt lat="45.31004" lon="1.10378">
        <ele>265.94</ele>
        <time>2018-09-22T08:06:57Z</time>
      </trkpt>
      <trkpt lat="45.31003" lon="1.10391">
        <ele>265.46</ele>
        <time>2018-09-22T08:07:14Z</time>
      </trkpt>
      <trkpt lat="45.31003" lon="1.10403">
        <ele>264.98</ele>
        <time>2018-09-22T08:07:28Z</time>
      </trkpt>
      <trkpt lat="45.31001" lon="1.10413">
        <ele>263.54</ele>
        <time>2018-09-22T08:07:46Z</time>
      </trkpt>
      <trkpt lat="45.30998" lon="1.10421">
        <ele>262.1</ele>
        <time>2018-09-22T08:08:03Z</time>
      </trkpt>
      <trkpt lat="45.30991" lon="1.10423">
        <ele>261.14</ele>
        <time>2018-09-22T08:08:19Z</time>
      </trkpt>
      <trkpt lat="45.30983" lon="1.10419">
        <ele>258.25</ele>
        <time>2018-09-22T08:08:36Z</time>
      </trkpt>
      <trkpt lat="45.30979" lon="1.10419">
        <ele>256.33</ele>
        <time>2018-09-22T08:08:52Z</time>
      </trkpt>
      <trkpt lat="45.30972" lon="1.10416">
        <ele>256.33</ele>
        <time>2018-09-22T08:09:08Z</time>
      </trkpt>
      <trkpt lat="45.30964" lon="1.10413">
        <ele>255.85</ele>
        <time>2018-09-22T08:09:24Z</time>
      </trkpt>
      <trkpt lat="45.30953" lon="1.10408">
        <ele>254.41</ele>
        <time>2018-09-22T08:09:42Z</time>
      </trkpt>
      <trkpt lat="45.30943" lon="1.10405">
        <ele>252.48</ele>
        <time>2018-09-22T08:10:00Z</time>
      </trkpt>
      <trkpt lat="45.30933" lon="1.10403">
        <ele>252</ele>
        <time>2018-09-22T08:10:17Z</time>
      </trkpt>
      <trkpt lat="45.30922" lon="1.10402">
        <ele>251.52</ele>
        <time>2018-09-22T08:10:36Z</time>
      </trkpt>
      <trkpt lat="45.30912" lon="1.10402">
        <ele>251.52</ele>
        <time>2018-09-22T08:10:53Z</time>
      </trkpt>
      <trkpt lat="45.30906" lon="1.10403">
        <ele>251.04</ele>
        <time>2018-09-22T08:11:08Z</time>
      </trkpt>
      <trkpt lat="45.30896" lon="1.10403">
        <ele>249.12</ele>
        <time>2018-09-22T08:11:23Z</time>
      </trkpt>
      <trkpt lat="45.30885" lon="1.10403">
        <ele>246.72</ele>
        <time>2018-09-22T08:11:41Z</time>
      </trkpt>
      <trkpt lat="45.30875" lon="1.10404">
        <ele>245.75</ele>
        <time>2018-09-22T08:11:58Z</time>
      </trkpt>
      <trkpt lat="45.30869" lon="1.10404">
        <ele>245.27</ele>
        <time>2018-09-22T08:12:18Z</time>
      </trkpt>
      <trkpt lat="45.30858" lon="1.10405">
        <ele>245.27</ele>
        <time>2018-09-22T08:12:34Z</time>
      </trkpt>
      <trkpt lat="45.30851" lon="1.10404">
        <ele>244.79</ele>
        <time>2018-09-22T08:12:53Z</time>
      </trkpt>
      <trkpt lat="45.30842" lon="1.10404">
        <ele>244.31</ele>
        <time>2018-09-22T08:13:10Z</time>
      </trkpt>
      <trkpt lat="45.30833" lon="1.10406">
        <ele>243.83</ele>
        <time>2018-09-22T08:13:26Z</time>
      </trkpt>
      <trkpt lat="45.30823" lon="1.10405">
        <ele>246.72</ele>
        <time>2018-09-22T08:13:42Z</time>
      </trkpt>
      <trkpt lat="45.3081" lon="1.10405">
        <ele>246.72</ele>
        <time>2018-09-22T08:13:59Z</time>
      </trkpt>
      <trkpt lat="45.308" lon="1.10402">
        <ele>244.79</ele>
        <time>2018-09-22T08:14:17Z</time>
      </trkpt>
      <trkpt lat="45.30792" lon="1.10398">
        <ele>242.39</ele>
        <time>2018-09-22T08:14:33Z</time>
      </trkpt>
      <trkpt lat="45.30784" lon="1.10393">
        <ele>238.54</ele>
        <time>2018-09-22T08:14:52Z</time>
      </trkpt>
      <trkpt lat="45.30776" lon="1.10388">
        <ele>234.7</ele>
        <time>2018-09-22T08:15:07Z</time>
      </trkpt>
      <trkpt lat="45.30765" lon="1.10384">
        <ele>236.62</ele>
        <time>2018-09-22T08:15:25Z</time>
      </trkpt>
      <trkpt lat="45.30754" lon="1.10378">
        <ele>238.06</ele>
        <time>2018-09-22T08:15:42Z</time>
      </trkpt>
      <trkpt lat="45.30746" lon="1.10372">
        <ele>238.06</ele>
        <time>2018-09-22T08:15:59Z</time>
      </trkpt>
      <trkpt lat="45.30738" lon="1.10365">
        <ele>238.54</ele>
        <time>2018-09-22T08:16:14Z</time>
      </trkpt>
      <trkpt lat="45.30729" lon="1.10357">
        <ele>237.58</ele>
        <time>2018-09-22T08:16:32Z</time>
      </trkpt>
      <trkpt lat="45.30724" lon="1.10346">
        <ele>236.14</ele>
        <time>2018-09-22T08:16:51Z</time>
      </trkpt>
      <trkpt lat="45.30725" lon="1.10345">
        <ele>238.06</ele>
        <time>2018-09-22T08:17:10Z</time>
      </trkpt>
      <trkpt lat="45.30729" lon="1.10337">
        <ele>236.14</ele>
        <time>2018-09-22T08:17:27Z</time>
      </trkpt>
      <trkpt lat="45.30728" lon="1.10335">
        <ele>238.06</ele>
        <time>2018-09-22T08:17:45Z</time>
      </trkpt>
      <trkpt lat="45.30735" lon="1.10332">
        <ele>235.18</ele>
        <time>2018-09-22T08:18:02Z</time>
      </trkpt>
      <trkpt lat="45.30744" lon="1.10324">
        <ele>234.22</ele>
        <time>2018-09-22T08:18:20Z</time>
      </trkpt>
      <trkpt lat="45.30754" lon="1.10313">
        <ele>233.26</ele>
        <time>2018-09-22T08:18:40Z</time>
      </trkpt>
      <trkpt lat="45.30764" lon="1.10301">
        <ele>234.7</ele>
        <time>2018-09-22T08:18:59Z</time>
      </trkpt>
      <trkpt lat="45.30772" lon="1.10292">
        <ele>234.7</ele>
        <time>2018-09-22T08:19:15Z</time>
      </trkpt>
      <trkpt lat="45.3078" lon="1.1028">
        <ele>234.22</ele>
        <time>2018-09-22T08:19:33Z</time>
      </trkpt>
      <trkpt lat="45.30787" lon="1.10268">
        <ele>234.22</ele>
        <time>2018-09-22T08:19:53Z</time>
      </trkpt>
      <trkpt lat="45.30792" lon="1.10258">
        <ele>234.7</ele>
        <time>2018-09-22T08:20:11Z</time>
      </trkpt>
      <trkpt lat="45.30794" lon="1.10251">
        <ele>233.74</ele>
        <time>2018-09-22T08:20:25Z</time>
      </trkpt>
      <trkpt lat="45.30801" lon="1.10236">
        <ele>233.74</ele>
        <time>2018-09-22T08:20:45Z</time>
      </trkpt>
      <trkpt lat="45.30805" lon="1.10221">
        <ele>233.74</ele>
        <time>2018-09-22T08:21:04Z</time>
      </trkpt>
      <trkpt lat="45.30809" lon="1.10206">
        <ele>234.7</ele>
        <time>2018-09-22T08:21:23Z</time>
      </trkpt>
      <trkpt lat="45.30814" lon="1.1019">
        <ele>235.18</ele>
        <time>2018-09-22T08:21:43Z</time>
      </trkpt>
      <trkpt lat="45.30817" lon="1.10177">
        <ele>235.18</ele>
        <time>2018-09-22T08:22:00Z</time>
      </trkpt>
      <trkpt lat="45.30821" lon="1.10162">
        <ele>236.62</ele>
        <time>2018-09-22T08:22:19Z</time>
      </trkpt>
      <trkpt lat="45.30825" lon="1.10149">
        <ele>236.62</ele>
        <time>2018-09-22T08:22:37Z</time>
      </trkpt>
      <trkpt lat="45.30828" lon="1.10138">
        <ele>237.1</ele>
        <time>2018-09-22T08:22:53Z</time>
      </trkpt>
      <trkpt lat="45.30832" lon="1.10126">
        <ele>237.1</ele>
        <time>2018-09-22T08:23:11Z</time>
      </trkpt>
      <trkpt lat="45.30839" lon="1.10111">
        <ele>237.1</ele>
        <time>2018-09-22T08:23:32Z</time>
      </trkpt>
      <trkpt lat="45.30843" lon="1.101">
        <ele>236.14</ele>
        <time>2018-09-22T08:23:47Z</time>
      </trkpt>
      <trkpt lat="45.30849" lon="1.1009">
        <ele>238.06</ele>
        <time>2018-09-22T08:24:03Z</time>
      </trkpt>
      <trkpt lat="45.30853" lon="1.10079">
        <ele>237.58</ele>
        <time>2018-09-22T08:24:20Z</time>
      </trkpt>
      <trkpt lat="45.30859" lon="1.10067">
        <ele>239.02</ele>
        <time>2018-09-22T08:24:37Z</time>
      </trkpt>
      <trkpt lat="45.30864" lon="1.10057">
        <ele>237.58</ele>
        <time>2018-09-22T08:24:53Z</time>
      </trkpt>
      <trkpt lat="45.30872" lon="1.10044">
        <ele>238.54</ele>
        <time>2018-09-22T08:25:13Z</time>
      </trkpt>
      <trkpt lat="45.30877" lon="1.10036">
        <ele>238.06</ele>
        <time>2018-09-22T08:25:31Z</time>
      </trkpt>
      <trkpt lat="45.30884" lon="1.10023">
        <ele>239.02</ele>
        <time>2018-09-22T08:25:50Z</time>
      </trkpt>
      <trkpt lat="45.30891" lon="1.10012">
        <ele>239.99</ele>
        <time>2018-09-22T08:26:08Z</time>
      </trkpt>
      <trkpt lat="45.30898" lon="1.10002">
        <ele>240.95</ele>
        <time>2018-09-22T08:26:26Z</time>
      </trkpt>
      <trkpt lat="45.30908" lon="1.09991">
        <ele>242.39</ele>
        <time>2018-09-22T08:26:46Z</time>
      </trkpt>
      <trkpt lat="45.30916" lon="1.09983">
        <ele>242.39</ele>
        <time>2018-09-22T08:27:04Z</time>
      </trkpt>
      <trkpt lat="45.30922" lon="1.09976">
        <ele>242.87</ele>
        <time>2018-09-22T08:27:21Z</time>
      </trkpt>
      <trkpt lat="45.30931" lon="1.09967">
        <ele>244.79</ele>
        <time>2018-09-22T08:27:38Z</time>
      </trkpt>
      <trkpt lat="45.30939" lon="1.0996">
        <ele>246.23</ele>
        <time>2018-09-22T08:27:55Z</time>
      </trkpt>
      <trkpt lat="45.30947" lon="1.09953">
        <ele>246.23</ele>
        <time>2018-09-22T08:28:12Z</time>
      </trkpt>
      <trkpt lat="45.30952" lon="1.0995">
        <ele>246.23</ele>
        <time>2018-09-22T08:28:27Z</time>
      </trkpt>
      <trkpt lat="45.30961" lon="1.09942">
        <ele>246.72</ele>
        <time>2018-09-22T08:28:46Z</time>
      </trkpt>
      <trkpt lat="45.30968" lon="1.09936">
        <ele>246.23</ele>
        <time>2018-09-22T08:29:04Z</time>
      </trkpt>
      <trkpt lat="45.30975" lon="1.09929">
        <ele>246.72</ele>
        <time>2018-09-22T08:29:20Z</time>
      </trkpt>
      <trkpt lat="45.30982" lon="1.09922">
        <ele>249.12</ele>
        <time>2018-09-22T08:29:37Z</time>
      </trkpt>
      <trkpt lat="45.30989" lon="1.09916">
        <ele>248.16</ele>
        <time>2018-09-22T08:29:51Z</time>
      </trkpt>
      <trkpt lat="45.30997" lon="1.09908">
        <ele>248.64</ele>
        <time>2018-09-22T08:30:07Z</time>
      </trkpt>
      <trkpt lat="45.31003" lon="1.09901">
        <ele>247.2</ele>
        <time>2018-09-22T08:30:24Z</time>
      </trkpt>
      <trkpt lat="45.31011" lon="1.09896">
        <ele>244.79</ele>
        <time>2018-09-22T08:30:39Z</time>
      </trkpt>
      <trkpt lat="45.31019" lon="1.09884">
        <ele>246.23</ele>
        <time>2018-09-22T08:30:58Z</time>
      </trkpt>
      <trkpt lat="45.31025" lon="1.09872">
        <ele>248.16</ele>
        <time>2018-09-22T08:31:14Z</time>
      </trkpt>
      <trkpt lat="45.31032" lon="1.09867">
        <ele>248.16</ele>
        <time>2018-09-22T08:31:30Z</time>
      </trkpt>
      <trkpt lat="45.31041" lon="1.09859">
        <ele>247.2</ele>
        <time>2018-09-22T08:31:46Z</time>
      </trkpt>
      <trkpt lat="45.31044" lon="1.09856">
        <ele>247.68</ele>
        <time>2018-09-22T08:32:01Z</time>
      </trkpt>
      <trkpt lat="45.31046" lon="1.0985">
        <ele>248.64</ele>
        <time>2018-09-22T08:32:16Z</time>
      </trkpt>
      <trkpt lat="45.31052" lon="1.0984">
        <ele>252</ele>
        <time>2018-09-22T08:32:32Z</time>
      </trkpt>
      <trkpt lat="45.31061" lon="1.09828">
        <ele>252.96</ele>
        <time>2018-09-22T08:32:52Z</time>
      </trkpt>
      <trkpt lat="45.31067" lon="1.09819">
        <ele>253.44</ele>
        <time>2018-09-22T08:33:09Z</time>
      </trkpt>
      <trkpt lat="45.31073" lon="1.0981">
        <ele>256.33</ele>
        <time>2018-09-22T08:33:27Z</time>
      </trkpt>
      <trkpt lat="45.31078" lon="1.09795">
        <ele>261.14</ele>
        <time>2018-09-22T08:33:45Z</time>
      </trkpt>
      <trkpt lat="45.31082" lon="1.09785">
        <ele>260.65</ele>
        <time>2018-09-22T08:34:03Z</time>
      </trkpt>
      <trkpt lat="45.31087" lon="1.09772">
        <ele>259.21</ele>
        <time>2018-09-22T08:34:22Z</time>
      </trkpt>
      <trkpt lat="45.31093" lon="1.09762">
        <ele>262.1</ele>
        <time>2018-09-22T08:34:39Z</time>
      </trkpt>
      <trkpt lat="45.31097" lon="1.09757">
        <ele>262.58</ele>
        <time>2018-09-22T08:34:56Z</time>
      </trkpt>
      <trkpt lat="45.31104" lon="1.09748">
        <ele>264.98</ele>
        <time>2018-09-22T08:35:13Z</time>
      </trkpt>
      <trkpt lat="45.31111" lon="1.09739">
        <ele>265.46</ele>
        <time>2018-09-22T08:35:33Z</time>
      </trkpt>
      <trkpt lat="45.31116" lon="1.09733">
        <ele>265.46</ele>
        <time>2018-09-22T08:35:52Z</time>
      </trkpt>
      <trkpt lat="45.31123" lon="1.09722">
        <ele>267.86</ele>
        <time>2018-09-22T08:36:09Z</time>
      </trkpt>
      <trkpt lat="45.31127" lon="1.09718">
        <ele>268.83</ele>
        <time>2018-09-22T08:36:23Z</time>
      </trkpt>
      <trkpt lat="45.31134" lon="1.09731">
        <ele>267.86</ele>
        <time>2018-09-22T08:36:40Z</time>
      </trkpt>
      <trkpt lat="45.31135" lon="1.09744">
        <ele>265.46</ele>
        <time>2018-09-22T08:36:59Z</time>
      </trkpt>
      <trkpt lat="45.31136" lon="1.0976">
        <ele>265.46</ele>
        <time>2018-09-22T08:37:18Z</time>
      </trkpt>
      <trkpt lat="45.31137" lon="1.09773">
        <ele>265.46</ele>
        <time>2018-09-22T08:37:33Z</time>
      </trkpt>
      <trkpt lat="45.3114" lon="1.09788">
        <ele>267.86</ele>
        <time>2018-09-22T08:37:51Z</time>
      </trkpt>
      <trkpt lat="45.31143" lon="1.09805">
        <ele>265.46</ele>
        <time>2018-09-22T08:38:10Z</time>
      </trkpt>
      <trkpt lat="45.31143" lon="1.09818">
        <ele>265.94</ele>
        <time>2018-09-22T08:38:27Z</time>
      </trkpt>
      <trkpt lat="45.31143" lon="1.09833">
        <ele>266.42</ele>
        <time>2018-09-22T08:38:44Z</time>
      </trkpt>
      <trkpt lat="45.31144" lon="1.09842">
        <ele>267.38</ele>
        <time>2018-09-22T08:38:59Z</time>
      </trkpt>
      <trkpt lat="45.31145" lon="1.09856">
        <ele>267.38</ele>
        <time>2018-09-22T08:39:15Z</time>
      </trkpt>
      <trkpt lat="45.31144" lon="1.09872">
        <ele>268.83</ele>
        <time>2018-09-22T08:39:31Z</time>
      </trkpt>
      <trkpt lat="45.31142" lon="1.09883">
        <ele>268.83</ele>
        <time>2018-09-22T08:39:49Z</time>
      </trkpt>
      <trkpt lat="45.31141" lon="1.09894">
        <ele>267.38</ele>
        <time>2018-09-22T08:40:05Z</time>
      </trkpt>
      <trkpt lat="45.31139" lon="1.09909">
        <ele>268.35</ele>
        <time>2018-09-22T08:40:22Z</time>
      </trkpt>
      <trkpt lat="45.31138" lon="1.09918">
        <ele>267.38</ele>
        <time>2018-09-22T08:40:38Z</time>
      </trkpt>
      <trkpt lat="45.31138" lon="1.09929">
        <ele>268.83</ele>
        <time>2018-09-22T08:40:53Z</time>
      </trkpt>
      <trkpt lat="45.31138" lon="1.09943">
        <ele>268.83</ele>
        <time>2018-09-22T08:41:08Z</time>
      </trkpt>
      <trkpt lat="45.31136" lon="1.09953">
        <ele>267.38</ele>
        <time>2018-09-22T08:41:24Z</time>
      </trkpt>
      <trkpt lat="45.31136" lon="1.09969">
        <ele>267.86</ele>
        <time>2018-09-22T08:41:42Z</time>
      </trkpt>
      <trkpt lat="45.31137" lon="1.09983">
        <ele>266.9</ele>
        <time>2018-09-22T08:41:59Z</time>
      </trkpt>
      <trkpt lat="45.3114" lon="1.09999">
        <ele>266.42</ele>
        <time>2018-09-22T08:42:16Z</time>
      </trkpt>
      <trkpt lat="45.31141" lon="1.10015">
        <ele>265.94</ele>
        <time>2018-09-22T08:42:34Z</time>
      </trkpt>
      <trkpt lat="45.31144" lon="1.10035">
        <ele>265.94</ele>
        <time>2018-09-22T08:42:55Z</time>
      </trkpt>
      <trkpt lat="45.31147" lon="1.10056">
        <ele>268.35</ele>
        <time>2018-09-22T08:43:16Z</time>
      </trkpt>
      <trkpt lat="45.31144" lon="1.10069">
        <ele>268.35</ele>
        <time>2018-09-22T08:43:31Z</time>
      </trkpt>
      <trkpt lat="45.31139" lon="1.10086">
        <ele>265.94</ele>
        <time>2018-09-22T08:43:50Z</time>
      </trkpt>
      <trkpt lat="45.31134" lon="1.10102">
        <ele>265.46</ele>
        <time>2018-09-22T08:44:08Z</time>
      </trkpt>
      <trkpt lat="45.31129" lon="1.10116">
        <ele>264.02</ele>
        <time>2018-09-22T08:44:26Z</time>
      </trkpt>
      <trkpt lat="45.31125" lon="1.10125">
        <ele>263.54</ele>
        <time>2018-09-22T08:44:43Z</time>
      </trkpt>
      <trkpt lat="45.3112" lon="1.1014">
        <ele>264.98</ele>
        <time>2018-09-22T08:45:00Z</time>
      </trkpt>
      <trkpt lat="45.31116" lon="1.10157">
        <ele>265.94</ele>
        <time>2018-09-22T08:45:19Z</time>
      </trkpt>
      <trkpt lat="45.31111" lon="1.10176">
        <ele>266.42</ele>
        <time>2018-09-22T08:45:39Z</time>
      </trkpt>
      <trkpt lat="45.31108" lon="1.1019">
        <ele>266.42</ele>
        <time>2018-09-22T08:45:56Z</time>
      </trkpt>
      <trkpt lat="45.31107" lon="1.10204">
        <ele>268.83</ele>
        <time>2018-09-22T08:46:14Z</time>
      </trkpt>
      <trkpt lat="45.31105" lon="1.10215">
        <ele>267.86</ele>
        <time>2018-09-22T08:46:29Z</time>
      </trkpt>
      <trkpt lat="45.31103" lon="1.10224">
        <ele>266.42</ele>
        <time>2018-09-22T08:46:48Z</time>
      </trkpt>
      <trkpt lat="45.311" lon="1.1024">
        <ele>264.98</ele>
        <time>2018-09-22T08:47:06Z</time>
      </trkpt>
      <trkpt lat="45.31089" lon="1.10251">
        <ele>265.46</ele>
        <time>2018-09-22T08:47:23Z</time>
      </trkpt>
      <trkpt lat="45.31079" lon="1.10255">
        <ele>264.02</ele>
        <time>2018-09-22T08:47:38Z</time>
      </trkpt>
      <trkpt lat="45.31071" lon="1.1026">
        <ele>264.5</ele>
        <time>2018-09-22T08:47:55Z</time>
      </trkpt>
      <trkpt lat="45.31063" lon="1.10268">
        <ele>262.58</ele>
        <time>2018-09-22T08:48:13Z</time>
      </trkpt>
      <trkpt lat="45.31056" lon="1.10278">
        <ele>263.06</ele>
        <time>2018-09-22T08:48:32Z</time>
      </trkpt>
      <trkpt lat="45.31054" lon="1.10287">
        <ele>264.5</ele>
        <time>2018-09-22T08:48:50Z</time>
      </trkpt>
      <trkpt lat="45.31054" lon="1.10289">
        <ele>259.69</ele>
        <time>2018-09-22T08:49:12Z</time>
      </trkpt>
      <trkpt lat="45.31052" lon="1.10287">
        <ele>261.14</ele>
        <time>2018-09-22T08:49:30Z</time>
      </trkpt>
      <trkpt lat="45.3105" lon="1.103">
        <ele>262.58</ele>
        <time>2018-09-22T08:49:49Z</time>
      </trkpt>
      <trkpt lat="45.31044" lon="1.10312">
        <ele>263.54</ele>
        <time>2018-09-22T08:50:07Z</time>
      </trkpt>
      <trkpt lat="45.31047" lon="1.10317">
        <ele>264.02</ele>
        <time>2018-09-22T08:50:26Z</time>
      </trkpt>
      <trkpt lat="45.31046" lon="1.10326">
        <ele>262.1</ele>
        <time>2018-09-22T08:50:42Z</time>
      </trkpt>
      <trkpt lat="45.31045" lon="1.10331">
        <ele>261.14</ele>
        <time>2018-09-22T08:51:01Z</time>
      </trkpt>
      <trkpt lat="45.31045" lon="1.10336">
        <ele>260.17</ele>
        <time>2018-09-22T08:51:19Z</time>
      </trkpt>
      <trkpt lat="45.31046" lon="1.10337">
        <ele>261.14</ele>
        <time>2018-09-22T08:51:40Z</time>
      </trkpt>
      <trkpt lat="45.31044" lon="1.10338">
        <ele>261.62</ele>
        <time>2018-09-22T08:52:00Z</time>
      </trkpt>
      <trkpt lat="45.31037" lon="1.10341">
        <ele>263.54</ele>
        <time>2018-09-22T08:52:19Z</time>
      </trkpt>
      <trkpt lat="45.31033" lon="1.10335">
        <ele>261.14</ele>
        <time>2018-09-22T08:52:35Z</time>
      </trkpt>
      <trkpt lat="45.31037" lon="1.10332">
        <ele>258.25</ele>
        <time>2018-09-22T08:52:53Z</time>
      </trkpt>
      <trkpt lat="45.31036" lon="1.10331">
        <ele>260.65</ele>
        <time>2018-09-22T08:53:15Z</time>
      </trkpt>
      <trkpt lat="45.31036" lon="1.10335">
        <ele>260.65</ele>
        <time>2018-09-22T08:53:41Z</time>
      </trkpt>
      <trkpt lat="45.31037" lon="1.10331">
        <ele>260.65</ele>
        <time>2018-09-22T08:54:09Z</time>
      </trkpt>
      <trkpt lat="45.31034" lon="1.1033">
        <ele>262.58</ele>
        <time>2018-09-22T08:54:31Z</time>
      </trkpt>
      <trkpt lat="45.31031" lon="1.10328">
        <ele>262.1</ele>
        <time>2018-09-22T08:54:49Z</time>
      </trkpt>
      <trkpt lat="45.31029" lon="1.10325">
        <ele>261.62</ele>
        <time>2018-09-22T08:55:03Z</time>
      </trkpt>
      <trkpt lat="45.31031" lon="1.10325">
        <ele>263.54</ele>
        <time>2018-09-22T08:55:35Z</time>
      </trkpt>
    </trkseg>
  </trk>
</gpx>